Terminal Aerodrome Forecast
Issued by NWS

Home | Current Version | Previous Version | Text Only | Print | Product List | Glossary On
Versions: 1 2 3 4 5 6 7 8 9 10 11 12 13 14 15 16 17 18 19 20 21 22 23 24 25 26 27
554
FTUS44 KFWD 031818 AAA
TAFAFW
TAF AMD
KAFW 031818Z 0318/0418 07009KT P6SM -RA OVC008
      TEMPO 0318/0322 2SM SHRA
     FM040000 04009KT 4SM BR OVC012
     FM040600 36008KT 3SM -DZ BR OVC004=

USA.gov is the U.S. government's official web portal to all federal, state and local government web resources and services.